createdAt,value
2017-08-04T00:00:03.434Z,999.88
2017-08-04T00:01:03.460Z,999.85
2017-08-04T00:02:03.488Z,999.86
2017-08-04T00:03:03.513Z,999.82
2017-08-04T00:04:03.540Z,999.83
2017-08-04T00:05:03.569Z,999.84
2017-08-04T00:06:03.596Z,999.93
2017-08-04T00:07:03.625Z,999.92
2017-08-04T00:08:03.761Z,999.94
2017-08-04T00:09:03.677Z,999.95
2017-08-04T00:10:03.703Z,999.95
2017-08-04T00:11:03.732Z,999.95
2017-08-04T00:12:03.761Z,999.9
2017-08-04T00:13:03.788Z,999.87
2017-08-04T00:14:03.814Z,999.86
2017-08-04T00:15:03.843Z,999.85
2017-08-04T00:16:03.867Z,999.83
2017-08-04T00:17:03.894Z,999.8
2017-08-04T00:18:03.926Z,999.81
2017-08-04T00:19:03.951Z,999.76
2017-08-04T00:20:03.978Z,999.73
2017-08-04T00:21:04.004Z,999.69
2017-08-04T00:22:04.032Z,999.68
2017-08-04T00:23:04.058Z,999.73
2017-08-04T00:24:04.085Z,999.66
2017-08-04T00:25:04.115Z,999.66
2017-08-04T00:26:04.140Z,999.66
2017-08-04T00:27:04.170Z,999.75
2017-08-04T00:28:04.195Z,999.88
2017-08-04T00:29:04.222Z,1000
2017-08-04T00:30:04.253Z,1000.03
2017-08-04T00:31:04.287Z,999.96
2017-08-04T00:32:04.303Z,999.82
2017-08-04T00:33:04.333Z,999.69
2017-08-04T00:34:04.357Z,999.79
2017-08-04T00:35:04.384Z,999.86
2017-08-04T00:36:04.410Z,999.92
2017-08-04T00:37:04.438Z,999.89
2017-08-04T00:38:04.465Z,999.87
2017-08-04T00:39:04.492Z,999.83
2017-08-04T00:40:04.519Z,999.84
2017-08-04T00:41:04.545Z,999.85
2017-08-04T00:42:04.573Z,999.8
2017-08-04T00:43:04.600Z,999.82
2017-08-04T00:44:04.630Z,999.84
2017-08-04T00:45:04.654Z,999.84
2017-08-04T00:46:04.681Z,999.82
2017-08-04T00:47:04.707Z,999.85
2017-08-04T00:48:04.734Z,999.84
2017-08-04T00:49:04.762Z,999.86
2017-08-04T00:50:04.788Z,999.87
2017-08-04T00:51:04.815Z,999.88
2017-08-04T00:52:04.847Z,999.89
2017-08-04T00:53:04.869Z,999.91
2017-08-04T00:54:04.899Z,999.91
2017-08-04T00:55:04.932Z,999.88
2017-08-04T00:56:04.950Z,999.87
2017-08-04T00:57:04.981Z,999.83
2017-08-04T00:58:05.003Z,999.83
2017-08-04T00:59:05.033Z,999.81
2017-08-04T01:00:05.057Z,999.79
2017-08-04T01:01:05.084Z,999.81
2017-08-04T01:02:05.111Z,999.79
2017-08-04T01:03:05.139Z,999.81
2017-08-04T01:04:05.166Z,999.83
2017-08-04T01:05:05.219Z,999.75
2017-08-04T01:06:05.218Z,999.81
2017-08-04T01:07:05.245Z,999.86
2017-08-04T01:08:05.273Z,999.87
2017-08-04T01:09:05.298Z,999.85
2017-08-04T01:10:05.326Z,999.85
2017-08-04T01:11:05.357Z,999.85
2017-08-04T01:12:05.377Z,999.79
2017-08-04T01:13:05.405Z,999.78
2017-08-04T01:14:05.433Z,999.77
2017-08-04T01:15:05.502Z,999.76
2017-08-04T01:16:05.486Z,999.74
2017-08-04T01:17:05.516Z,999.73
2017-08-04T01:18:05.542Z,999.75
2017-08-04T01:19:05.567Z,999.78
2017-08-04T01:20:05.593Z,999.8
2017-08-04T01:21:05.620Z,999.79
2017-08-04T01:22:05.646Z,999.81
2017-08-04T01:23:05.673Z,999.79
2017-08-04T01:24:05.700Z,999.85
2017-08-04T01:25:05.727Z,999.89
2017-08-04T01:26:05.754Z,999.88
2017-08-04T01:27:05.780Z,999.92
2017-08-04T01:28:05.806Z,999.89
2017-08-04T01:29:05.834Z,999.9
2017-08-04T01:30:05.860Z,999.89
2017-08-04T01:31:05.886Z,999.89
2017-08-04T01:32:05.913Z,999.91
2017-08-04T01:33:05.941Z,999.93
2017-08-04T01:34:05.966Z,999.93
2017-08-04T01:35:05.993Z,999.94
2017-08-04T01:36:06.021Z,999.88
2017-08-04T01:37:06.048Z,999.88
2017-08-04T01:38:06.074Z,999.84
2017-08-04T01:39:06.099Z,999.86
2017-08-04T01:40:06.126Z,999.85
2017-08-04T01:41:06.153Z,999.88
2017-08-04T01:42:06.179Z,999.96
2017-08-04T01:43:06.206Z,999.98
2017-08-04T01:44:06.233Z,999.98
2017-08-04T01:45:06.258Z,1000.04
2017-08-04T01:46:06.286Z,1000.03
2017-08-04T01:47:06.314Z,999.99
2017-08-04T01:48:06.340Z,999.96
2017-08-04T01:49:06.365Z,999.94
2017-08-04T01:50:06.393Z,999.95
2017-08-04T01:51:06.419Z,999.95
2017-08-04T01:52:06.449Z,999.98
2017-08-04T01:53:06.472Z,1000.02
2017-08-04T01:54:06.498Z,1000.02
2017-08-04T01:55:06.526Z,999.98
2017-08-04T01:56:06.552Z,1000.01
2017-08-04T01:57:06.578Z,999.99
2017-08-04T01:58:06.606Z,1000
2017-08-04T01:59:06.632Z,1000.04
2017-08-04T02:00:06.657Z,999.99
2017-08-04T02:01:06.684Z,1000.01
2017-08-04T02:02:06.713Z,999.96
2017-08-04T02:03:06.737Z,999.98
2017-08-04T02:04:06.764Z,999.99
2017-08-04T02:05:06.791Z,999.96
2017-08-04T02:06:06.817Z,999.93
2017-08-04T02:07:06.844Z,999.94
2017-08-04T02:08:06.871Z,999.95
2017-08-04T02:09:06.897Z,999.98
2017-08-04T02:10:06.923Z,1000
2017-08-04T02:11:06.951Z,1000.05
2017-08-04T02:12:06.975Z,1000.01
2017-08-04T02:13:07.002Z,1000.01
2017-08-04T02:14:07.028Z,999.93
2017-08-04T02:15:07.055Z,999.88
2017-08-04T02:16:07.082Z,999.83
2017-08-04T02:17:07.109Z,999.82
2017-08-04T02:18:07.133Z,999.87
2017-08-04T02:19:07.172Z,999.9
2017-08-04T02:20:07.189Z,999.86
2017-08-04T02:21:07.214Z,999.87
2017-08-04T02:22:07.239Z,999.83
2017-08-04T02:23:07.266Z,999.83
2017-08-04T02:24:07.298Z,999.79
2017-08-04T02:25:07.319Z,999.84
2017-08-04T02:26:07.344Z,999.84
2017-08-04T02:27:07.372Z,999.86
2017-08-04T02:28:07.398Z,999.82
2017-08-04T02:29:07.424Z,999.82
2017-08-04T02:30:07.450Z,999.81
2017-08-04T02:31:07.479Z,999.81
2017-08-04T02:32:07.504Z,999.84
2017-08-04T02:33:07.529Z,999.84
2017-08-04T02:34:07.556Z,999.82
2017-08-04T02:35:07.583Z,999.8
2017-08-04T02:36:07.608Z,999.79
2017-08-04T02:37:07.635Z,999.78
2017-08-04T02:38:07.661Z,999.73
2017-08-04T02:39:07.688Z,999.74
2017-08-04T02:40:07.717Z,999.75
2017-08-04T02:41:07.740Z,999.77
2017-08-04T02:42:07.767Z,999.77
2017-08-04T02:43:07.793Z,999.83
2017-08-04T02:44:07.818Z,999.82
2017-08-04T02:45:07.845Z,999.86
2017-08-04T02:46:07.872Z,999.86
2017-08-04T02:47:07.897Z,999.88
2017-08-04T02:48:07.924Z,999.82
2017-08-04T02:49:07.950Z,999.86
2017-08-04T02:50:07.976Z,999.83
2017-08-04T02:51:08.003Z,999.83
2017-08-04T02:52:08.027Z,999.81
2017-08-04T02:53:08.057Z,999.85
2017-08-04T02:54:08.082Z,999.84
2017-08-04T02:55:08.107Z,999.8
2017-08-04T02:56:08.133Z,999.8
2017-08-04T02:57:08.162Z,999.81
2017-08-04T02:58:08.186Z,999.77
2017-08-04T02:59:08.212Z,999.78
2017-08-04T03:00:08.239Z,999.76
2017-08-04T03:01:08.265Z,999.74
2017-08-04T03:02:08.289Z,999.76
2017-08-04T03:03:08.316Z,999.72
2017-08-04T03:04:08.342Z,999.73
2017-08-04T03:05:08.369Z,999.7
2017-08-04T03:06:08.395Z,999.67
2017-08-04T03:07:08.422Z,999.7
2017-08-04T03:08:08.447Z,999.71
2017-08-04T03:09:08.472Z,999.73
2017-08-04T03:10:08.499Z,999.71
2017-08-04T03:11:08.526Z,999.71
2017-08-04T03:12:08.554Z,999.69
2017-08-04T03:13:08.577Z,999.71
2017-08-04T03:14:08.605Z,999.77
2017-08-04T03:15:08.631Z,999.76
2017-08-04T03:16:08.657Z,999.77
2017-08-04T03:17:08.727Z,999.77
2017-08-04T03:18:08.709Z,999.83
2017-08-04T03:19:08.735Z,999.82
2017-08-04T03:20:08.760Z,999.88
2017-08-04T03:21:08.787Z,999.9
2017-08-04T03:22:08.814Z,999.83
2017-08-04T03:23:08.841Z,999.83
2017-08-04T03:24:08.865Z,999.79
2017-08-04T03:25:08.892Z,999.77
2017-08-04T03:26:08.916Z,999.75
2017-08-04T03:27:08.944Z,999.76
2017-08-04T03:28:08.975Z,999.81
2017-08-04T03:29:08.997Z,999.87
2017-08-04T03:30:09.023Z,999.9
2017-08-04T03:31:09.048Z,999.91
2017-08-04T03:32:09.077Z,999.91
2017-08-04T03:33:09.101Z,999.92
2017-08-04T03:34:09.127Z,999.93
2017-08-04T03:35:09.153Z,999.92
2017-08-04T03:36:09.181Z,999.91
2017-08-04T03:37:09.204Z,999.86
2017-08-04T03:38:09.230Z,999.91
2017-08-04T03:39:09.256Z,999.86
2017-08-04T03:40:09.282Z,999.86
2017-08-04T03:41:09.309Z,999.82
2017-08-04T03:42:09.335Z,999.84
2017-08-04T03:43:09.360Z,999.84
2017-08-04T03:45:09.414Z,999.78
2017-08-04T03:46:09.437Z,999.83
2017-08-04T03:47:09.465Z,999.84
2017-08-04T03:48:09.514Z,999.82
2017-08-04T03:49:09.549Z,999.8
2017-08-04T03:50:09.549Z,999.84
2017-08-04T03:51:09.810Z,999.79
2017-08-04T03:52:09.594Z,999.85
2017-08-04T03:53:09.620Z,999.84
2017-08-04T03:54:09.646Z,999.88
2017-08-04T03:55:09.780Z,999.91
2017-08-04T03:56:09.697Z,999.92
2017-08-04T03:57:09.815Z,999.91
2017-08-04T03:58:09.812Z,999.87
2017-08-04T03:59:09.774Z,999.86
2017-08-04T04:00:09.943Z,999.86
2017-08-04T04:01:09.827Z,999.86
2017-08-04T04:02:09.857Z,999.83
2017-08-04T04:03:09.879Z,999.85
2017-08-04T04:04:09.903Z,999.86
2017-08-04T04:05:09.931Z,999.85
2017-08-04T04:06:09.958Z,999.88
2017-08-04T04:07:09.984Z,999.83
2017-08-04T04:08:10.008Z,999.82
2017-08-04T04:09:10.033Z,999.82
2017-08-04T04:10:10.061Z,999.85
2017-08-04T04:11:10.085Z,999.85
2017-08-04T04:12:10.112Z,999.87
2017-08-04T04:13:10.137Z,999.88
2017-08-04T04:14:10.193Z,999.88
2017-08-04T04:15:10.189Z,999.89
2017-08-04T04:16:10.215Z,999.93
2017-08-04T04:17:10.243Z,999.96
2017-08-04T04:18:10.269Z,999.95
2017-08-04T04:19:10.291Z,999.95
2017-08-04T04:20:10.318Z,999.91
2017-08-04T04:21:10.345Z,999.96
2017-08-04T04:22:10.371Z,999.93
2017-08-04T04:23:10.419Z,999.93
2017-08-04T04:24:10.422Z,999.97
2017-08-04T04:25:10.447Z,999.97
2017-08-04T04:26:10.479Z,999.99
2017-08-04T04:27:10.499Z,999.97
2017-08-04T04:28:10.526Z,1000.01
2017-08-04T04:29:10.554Z,1000.01
2017-08-04T04:30:10.577Z,999.99
2017-08-04T04:31:10.615Z,1000.06
2017-08-04T04:32:10.628Z,1000
2017-08-04T04:33:10.657Z,999.94
2017-08-04T04:34:10.678Z,999.97
2017-08-04T04:35:10.705Z,999.95
2017-08-04T04:36:10.732Z,1000.05
2017-08-04T04:37:10.757Z,1000.09
2017-08-04T04:38:10.783Z,1000.09
2017-08-04T04:39:10.811Z,1000.03
2017-08-04T04:40:10.834Z,999.96
2017-08-04T04:41:10.860Z,999.94
2017-08-04T04:42:10.887Z,999.92
2017-08-04T04:43:10.912Z,999.97
2017-08-04T04:44:10.938Z,999.98
2017-08-04T04:45:10.965Z,1000.01
2017-08-04T04:46:10.989Z,1000.05
2017-08-04T04:47:11.017Z,1000.06
2017-08-04T04:48:11.042Z,1000.1
2017-08-04T04:49:11.066Z,1000.08
2017-08-04T04:50:11.092Z,1000.06
2017-08-04T04:51:11.118Z,1000
2017-08-04T04:52:11.144Z,1000.03
2017-08-04T04:53:11.169Z,1000.05
2017-08-04T04:54:11.195Z,1000
2017-08-04T04:55:11.221Z,999.99
2017-08-04T04:56:11.247Z,1000.02
2017-08-04T04:57:11.273Z,1000.03
2017-08-04T04:58:11.298Z,1000
2017-08-04T04:59:11.325Z,1000.04
2017-08-04T05:00:11.350Z,1000.11
2017-08-04T05:01:11.376Z,1000.13
2017-08-04T05:02:11.402Z,1000.11
2017-08-04T05:03:11.429Z,1000.12
2017-08-04T05:04:11.455Z,1000.06
2017-08-04T05:05:11.480Z,1000.09
2017-08-04T05:06:11.505Z,1000.09
2017-08-04T05:07:11.531Z,1000.08
2017-08-04T05:08:11.557Z,1000.1
2017-08-04T05:09:11.584Z,1000.11
2017-08-04T05:10:11.608Z,1000.1
2017-08-04T05:11:11.635Z,1000.1
2017-08-04T05:12:11.660Z,1000.06
2017-08-04T05:13:11.685Z,1000.04
2017-08-04T05:14:11.713Z,1000.07
2017-08-04T05:15:11.737Z,1000.09
2017-08-04T05:16:11.763Z,1000.08
2017-08-04T05:17:11.788Z,1000.07
2017-08-04T05:18:11.814Z,1000.03
2017-08-04T05:19:11.841Z,999.99
2017-08-04T05:20:11.866Z,1000.02
2017-08-04T05:21:11.894Z,1000.02
2017-08-04T05:22:11.918Z,999.98
2017-08-04T05:23:11.945Z,1000.03
2017-08-04T05:24:11.969Z,1000.03
2017-08-04T05:25:11.993Z,1000.04
2017-08-04T05:26:12.024Z,1000.04
2017-08-04T05:27:12.047Z,1000.04
2017-08-04T05:28:12.072Z,1000.02
2017-08-04T05:29:12.099Z,1000.04
2017-08-04T05:30:12.124Z,1000.02
2017-08-04T05:31:12.151Z,1000.03
2017-08-04T05:32:12.176Z,1000.03
2017-08-04T05:33:12.201Z,1000.03
2017-08-04T05:34:12.226Z,1000.06
2017-08-04T05:35:12.255Z,1000.07
2017-08-04T05:36:12.279Z,1000.07
2017-08-04T05:37:12.306Z,1000.07
2017-08-04T05:38:12.332Z,1000.04
2017-08-04T05:39:12.358Z,1000.05
2017-08-04T05:40:12.382Z,999.99
2017-08-04T05:41:12.410Z,1000.02
2017-08-04T05:42:12.436Z,1000.04
2017-08-04T05:43:12.460Z,1000.07
2017-08-04T05:44:12.486Z,1000.08
2017-08-04T05:45:12.511Z,1000.11
2017-08-04T05:46:12.536Z,1000.08
2017-08-04T05:47:12.564Z,1000.07
2017-08-04T05:48:12.592Z,1000.08
2017-08-04T05:49:12.616Z,1000.04
2017-08-04T05:50:12.642Z,1000.05
2017-08-04T05:51:12.669Z,1000.03
2017-08-04T05:52:12.695Z,1000
2017-08-04T05:53:12.722Z,1000.04
2017-08-04T05:54:12.748Z,1000.04
2017-08-04T05:55:12.772Z,1000.05
2017-08-04T05:56:12.798Z,1000.09
2017-08-04T05:57:12.823Z,1000.1
2017-08-04T05:58:12.850Z,1000.12
2017-08-04T05:59:12.878Z,1000.11
2017-08-04T06:00:12.903Z,1000.14
2017-08-04T06:01:12.928Z,1000.16
2017-08-04T06:02:12.954Z,1000.16
2017-08-04T06:03:12.984Z,1000.18
2017-08-04T06:04:13.008Z,1000.16
2017-08-04T06:05:13.032Z,1000.16
2017-08-04T06:06:13.058Z,1000.16
2017-08-04T06:07:13.086Z,1000.19
2017-08-04T06:08:13.111Z,1000.2
2017-08-04T06:09:13.136Z,1000.22
2017-08-04T06:10:13.163Z,1000.24
2017-08-04T06:11:13.189Z,1000.23
2017-08-04T06:12:13.215Z,1000.25
2017-08-04T06:13:13.242Z,1000.25
2017-08-04T06:14:13.266Z,1000.24
2017-08-04T06:15:13.295Z,1000.29
2017-08-04T06:16:13.320Z,1000.28
2017-08-04T06:17:13.345Z,1000.32
2017-08-04T06:18:13.372Z,1000.32
2017-08-04T06:19:13.397Z,1000.31
2017-08-04T06:20:13.424Z,1000.34
2017-08-04T06:21:13.471Z,1000.31
2017-08-04T06:22:13.476Z,1000.39
2017-08-04T06:23:13.502Z,1000.38
2017-08-04T06:24:13.528Z,1000.42
2017-08-04T06:25:13.555Z,1000.43
2017-08-04T06:26:13.582Z,1000.46
2017-08-04T06:27:13.607Z,1000.46
2017-08-04T06:28:13.633Z,1000.45
2017-08-04T06:29:13.660Z,1000.38
2017-08-04T06:30:13.688Z,1000.39
2017-08-04T06:31:13.712Z,1000.36
2017-08-04T06:32:13.738Z,1000.34
2017-08-04T06:33:13.765Z,1000.23
2017-08-04T06:34:13.790Z,1000.26
2017-08-04T06:35:13.817Z,1000.26
2017-08-04T06:36:13.845Z,1000.31
2017-08-04T06:37:13.871Z,1000.34
2017-08-04T06:38:13.898Z,1000.32
2017-08-04T06:39:13.923Z,1000.34
2017-08-04T06:40:13.950Z,1000.27
2017-08-04T06:41:13.977Z,1000.22
2017-08-04T06:42:14.002Z,1000.24
2017-08-04T06:43:14.028Z,1000.19
2017-08-04T06:44:14.056Z,1000.25
2017-08-04T06:45:14.081Z,1000.2
2017-08-04T06:46:14.110Z,1000.21
2017-08-04T06:47:14.137Z,1000.22
2017-08-04T06:48:14.161Z,1000.22
2017-08-04T06:49:14.195Z,1000.22
2017-08-04T06:50:14.213Z,1000.24
2017-08-04T06:51:14.240Z,1000.22
2017-08-04T06:52:14.275Z,1000.2
2017-08-04T06:53:14.293Z,1000.19
2017-08-04T06:54:14.321Z,1000.15
2017-08-04T06:55:14.346Z,1000.13
2017-08-04T06:56:14.371Z,1000.12
2017-08-04T06:57:14.398Z,1000.07
2017-08-04T06:58:14.426Z,1000.09
2017-08-04T06:59:14.451Z,1000.07
2017-08-04T07:00:14.477Z,1000.09
2017-08-04T07:01:14.504Z,1000.13
2017-08-04T07:02:14.532Z,1000.1
2017-08-04T07:03:14.557Z,1000.05
2017-08-04T07:04:14.584Z,1000.04
2017-08-04T07:05:14.610Z,1000.01
2017-08-04T07:06:14.636Z,1000.02
2017-08-04T07:07:14.663Z,999.96
2017-08-04T07:08:14.689Z,1000.03
2017-08-04T07:09:14.716Z,1000.01
2017-08-04T07:10:14.744Z,1000.05
2017-08-04T07:11:14.770Z,1000.04
2017-08-04T07:12:14.796Z,1000.04
2017-08-04T07:13:14.823Z,1000.05
2017-08-04T07:14:14.849Z,1000.14
2017-08-04T07:15:14.876Z,1000.14
2017-08-04T07:16:14.904Z,1000.1
2017-08-04T07:17:14.929Z,1000.18
2017-08-04T07:18:14.956Z,1000.12
2017-08-04T07:19:14.983Z,1000.1
2017-08-04T07:20:15.010Z,1000.07
2017-08-04T07:21:15.036Z,1000.07
2017-08-04T07:22:15.062Z,1000.01
2017-08-04T07:23:15.089Z,1000.02
2017-08-04T07:24:15.117Z,1000.01
2017-08-04T07:25:15.144Z,1000
2017-08-04T07:26:15.172Z,1000
2017-08-04T07:27:15.199Z,999.98
2017-08-04T07:28:15.224Z,999.92
2017-08-04T07:29:15.251Z,999.97
2017-08-04T07:30:15.277Z,999.95
2017-08-04T07:31:15.306Z,999.95
2017-08-04T07:32:15.333Z,999.99
2017-08-04T07:33:15.356Z,999.96
2017-08-04T07:34:15.386Z,999.98
2017-08-04T07:35:15.412Z,999.93
2017-08-04T07:36:15.439Z,999.98
2017-08-04T07:37:15.464Z,1000.02
2017-08-04T07:38:15.492Z,999.99
2017-08-04T07:39:15.519Z,1000.01
2017-08-04T07:40:15.546Z,1000.02
2017-08-04T07:41:15.573Z,999.96
2017-08-04T07:42:15.611Z,999.99
2017-08-04T07:43:15.631Z,1000.07
2017-08-04T07:44:15.653Z,1000.12
2017-08-04T07:45:15.685Z,1000.14
2017-08-04T07:46:15.709Z,1000.16
2017-08-04T07:47:15.738Z,1000.2
2017-08-04T07:48:15.778Z,1000.22
2017-08-04T07:49:15.792Z,1000.18
2017-08-04T07:50:15.817Z,1000.22
2017-08-04T07:51:15.844Z,1000.24
2017-08-04T07:52:15.871Z,1000.27
2017-08-04T07:53:15.899Z,1000.29
2017-08-04T07:54:15.926Z,1000.28
2017-08-04T07:55:15.953Z,1000.24
2017-08-04T07:56:15.980Z,1000.21
2017-08-04T07:57:16.008Z,1000.22
2017-08-04T07:58:16.035Z,1000.2
2017-08-04T07:59:16.061Z,1000.22
2017-08-04T08:00:16.089Z,1000.23
2017-08-04T08:01:16.117Z,1000.17
2017-08-04T08:02:16.146Z,1000.18
2017-08-04T08:03:16.171Z,1000.21
2017-08-04T08:04:16.197Z,1000.18
2017-08-04T08:05:16.225Z,1000.21
2017-08-04T08:06:16.254Z,1000.24
2017-08-04T08:07:16.280Z,1000.28
2017-08-04T08:08:16.307Z,1000.29
2017-08-04T08:09:16.335Z,1000.24
2017-08-04T08:10:16.362Z,1000.21
2017-08-04T08:11:16.389Z,1000.16
2017-08-04T08:12:16.417Z,1000.18
2017-08-04T08:13:16.446Z,1000.14
2017-08-04T08:14:16.473Z,1000.13
2017-08-04T08:15:16.501Z,1000.12
2017-08-04T08:16:16.527Z,1000.06
2017-08-04T08:17:16.555Z,1000.04
2017-08-04T08:18:16.585Z,1000
2017-08-04T08:19:16.610Z,1000.02
2017-08-04T08:20:16.637Z,1000.01
2017-08-04T08:21:16.665Z,1000.04
2017-08-04T08:22:16.693Z,1000.05
2017-08-04T08:23:16.719Z,1000.01
2017-08-04T08:24:16.748Z,1000.03
2017-08-04T08:25:16.775Z,1000.01
2017-08-04T08:26:16.803Z,1000.03
2017-08-04T08:27:16.852Z,1000.02
2017-08-04T08:28:16.859Z,1000.01
2017-08-04T08:29:16.885Z,999.95
2017-08-04T08:30:16.916Z,999.99
2017-08-04T08:31:16.941Z,999.97
2017-08-04T08:32:16.969Z,999.93
2017-08-04T08:33:16.996Z,999.92
2017-08-04T08:34:17.025Z,999.91
2017-08-04T08:35:17.052Z,999.93
2017-08-04T08:36:17.080Z,999.94
2017-08-04T08:37:17.112Z,999.92
2017-08-04T08:38:17.134Z,999.94
2017-08-04T08:39:17.163Z,999.93
2017-08-04T08:40:17.190Z,999.96
2017-08-04T08:41:17.218Z,999.96
2017-08-04T08:42:17.244Z,999.97
2017-08-04T08:43:17.273Z,999.96
2017-08-04T08:44:17.302Z,999.98
2017-08-04T08:45:17.329Z,999.95
2017-08-04T08:46:17.357Z,999.98
2017-08-04T08:47:17.385Z,999.99
2017-08-04T08:48:17.413Z,999.99
2017-08-04T08:49:17.439Z,999.95
2017-08-04T08:50:17.470Z,1000.02
2017-08-04T08:51:17.495Z,1000.02
2017-08-04T08:52:17.528Z,1000.01
2017-08-04T08:53:17.551Z,999.97
2017-08-04T08:54:17.580Z,999.96
2017-08-04T08:55:17.609Z,999.89
2017-08-04T08:56:17.634Z,999.84
2017-08-04T08:57:17.664Z,999.79
2017-08-04T08:58:17.692Z,999.83
2017-08-04T08:59:17.722Z,999.85
2017-08-04T09:00:17.747Z,999.87
2017-08-04T09:01:17.775Z,999.86
2017-08-04T09:02:17.804Z,999.84
2017-08-04T09:03:17.832Z,999.84
2017-08-04T09:04:17.860Z,999.88
2017-08-04T09:05:17.888Z,999.87
2017-08-04T09:06:17.916Z,999.89
2017-08-04T09:07:17.943Z,999.89
2017-08-04T09:08:17.972Z,999.88
2017-08-04T09:09:18.000Z,999.96
2017-08-04T09:10:18.028Z,999.81
2017-08-04T09:11:18.056Z,999.88
2017-08-04T09:12:18.086Z,1000.05
2017-08-04T09:13:18.112Z,999.97
2017-08-04T09:14:18.140Z,999.99
2017-08-04T09:15:18.171Z,1000
2017-08-04T09:16:18.290Z,1000
2017-08-04T09:17:18.268Z,999.94
2017-08-04T09:18:18.329Z,999.95
2017-08-04T09:19:18.325Z,999.98
2017-08-04T09:20:18.311Z,1000.01
2017-08-04T09:21:18.339Z,999.98
2017-08-04T09:22:18.366Z,1000.05
2017-08-04T09:23:18.395Z,1000.05
2017-08-04T09:24:18.470Z,1000.1
2017-08-04T09:25:18.452Z,1000.08
2017-08-04T09:26:18.480Z,1000.03
2017-08-04T09:27:18.511Z,1000.01
2017-08-04T09:28:18.538Z,1000
2017-08-04T09:29:18.566Z,999.94
2017-08-04T09:30:18.594Z,999.99
2017-08-04T09:31:18.624Z,1000.07
2017-08-04T09:32:18.653Z,1000.03
2017-08-04T09:33:18.681Z,1000.03
2017-08-04T09:34:18.710Z,999.99
2017-08-04T09:35:18.739Z,999.95
2017-08-04T09:36:18.770Z,999.91
2017-08-04T09:37:18.796Z,999.93
2017-08-04T09:38:18.828Z,999.81
2017-08-04T09:39:18.856Z,999.79
2017-08-04T09:40:18.883Z,999.8
2017-08-04T09:41:18.912Z,999.77
2017-08-04T09:42:18.941Z,999.81
2017-08-04T09:43:18.969Z,999.85
2017-08-04T09:44:19.022Z,999.86
2017-08-04T09:45:19.028Z,999.84
2017-08-04T09:46:19.060Z,999.82
2017-08-04T09:47:19.085Z,999.81
2017-08-04T09:48:19.236Z,999.84
2017-08-04T09:49:19.144Z,999.89
2017-08-04T09:50:19.174Z,999.82
2017-08-04T09:51:19.202Z,999.82
2017-08-04T09:52:19.232Z,999.87
2017-08-04T09:53:19.261Z,999.89
2017-08-04T09:54:19.290Z,999.87
2017-08-04T09:55:19.319Z,999.94
2017-08-04T09:56:19.349Z,999.95
2017-08-04T09:57:19.379Z,999.96
2017-08-04T09:58:19.407Z,999.96
2017-08-04T09:59:19.436Z,999.93
2017-08-04T10:00:19.465Z,999.9
2017-08-04T10:01:19.495Z,999.99
2017-08-04T10:02:19.524Z,999.96
2017-08-04T10:03:19.553Z,999.93
2017-08-04T10:04:19.587Z,999.95
2017-08-04T10:05:19.613Z,999.97
2017-08-04T10:06:19.641Z,999.91
2017-08-04T10:07:19.670Z,999.94
2017-08-04T10:08:19.700Z,999.96
2017-08-04T10:09:19.730Z,999.95
2017-08-04T10:10:19.758Z,999.99
2017-08-04T10:11:19.788Z,999.93
2017-08-04T10:12:19.817Z,999.96
2017-08-04T10:13:19.847Z,999.92
2017-08-04T10:14:19.877Z,1000
2017-08-04T10:15:19.906Z,1000.01
2017-08-04T10:16:19.935Z,999.97
2017-08-04T10:17:19.965Z,999.99
2017-08-04T10:18:19.995Z,999.98
2017-08-04T10:19:20.024Z,999.94
2017-08-04T10:20:20.053Z,999.96
2017-08-04T10:21:20.082Z,999.93
2017-08-04T10:22:20.112Z,999.96
2017-08-04T10:23:20.142Z,999.94
2017-08-04T10:24:20.172Z,999.95
2017-08-04T10:25:20.201Z,999.95
2017-08-04T10:26:20.230Z,1000.04
2017-08-04T10:27:20.261Z,999.99
2017-08-04T10:28:20.288Z,999.94
2017-08-04T10:29:20.324Z,999.92
2017-08-04T10:30:20.347Z,999.99
2017-08-04T10:31:20.375Z,999.95
2017-08-04T10:32:20.407Z,1000.01
2017-08-04T10:33:20.437Z,1000.04
2017-08-04T10:34:20.468Z,1000.02
2017-08-04T10:35:20.494Z,1000.06
2017-08-04T10:36:20.526Z,1000.04
2017-08-04T10:37:20.553Z,1000.05
2017-08-04T10:38:20.585Z,1000.03
2017-08-04T10:39:20.612Z,1000.05
2017-08-04T10:40:20.644Z,999.96
2017-08-04T10:41:20.673Z,999.92
2017-08-04T10:42:20.705Z,999.92
2017-08-04T10:43:20.733Z,999.88
2017-08-04T10:44:20.767Z,999.81
2017-08-04T10:45:20.792Z,999.87
2017-08-04T10:46:20.822Z,999.8
2017-08-04T10:47:20.851Z,999.83
2017-08-04T10:48:20.882Z,999.89
2017-08-04T10:49:20.911Z,999.92
2017-08-04T10:50:20.941Z,999.95
2017-08-04T10:51:20.970Z,999.9
2017-08-04T10:52:21.000Z,999.89
2017-08-04T10:53:21.029Z,999.95
2017-08-04T10:54:21.064Z,999.94
2017-08-04T10:55:21.089Z,999.94
2017-08-04T10:56:21.119Z,999.97
2017-08-04T10:57:21.149Z,999.98
2017-08-04T10:58:21.178Z,999.94
2017-08-04T10:59:21.208Z,999.97
2017-08-04T11:00:21.238Z,999.91
2017-08-04T11:01:21.268Z,999.89
2017-08-04T11:02:21.298Z,999.89
2017-08-04T11:03:21.327Z,999.89
2017-08-04T11:04:21.357Z,999.84
2017-08-04T11:05:21.387Z,999.9
2017-08-04T11:06:21.418Z,999.85
2017-08-04T11:07:21.449Z,999.86
2017-08-04T11:08:21.484Z,999.92
2017-08-04T11:09:21.507Z,999.87
2017-08-04T11:10:21.539Z,999.87
2017-08-04T11:11:21.567Z,999.9
2017-08-04T11:12:21.598Z,999.84
2017-08-04T11:13:21.626Z,999.9
2017-08-04T11:14:21.655Z,999.91
2017-08-04T11:15:21.686Z,999.91
2017-08-04T11:16:21.716Z,999.9
2017-08-04T11:17:21.746Z,999.87
2017-08-04T11:18:21.777Z,999.73
2017-08-04T11:19:21.805Z,999.72
2017-08-04T11:20:21.836Z,999.69
2017-08-04T11:21:21.866Z,999.67
2017-08-04T11:22:21.897Z,999.66
2017-08-04T11:23:21.927Z,999.63
2017-08-04T11:24:21.957Z,999.66
2017-08-04T11:25:21.988Z,999.69
2017-08-04T11:26:22.018Z,999.64
2017-08-04T11:27:22.046Z,999.65
2017-08-04T11:28:22.078Z,999.67
2017-08-04T11:29:22.109Z,999.67
2017-08-04T11:30:22.138Z,999.67
2017-08-04T11:31:22.169Z,999.75
2017-08-04T11:32:22.199Z,999.65
2017-08-04T11:33:22.227Z,999.67
2017-08-04T11:34:22.261Z,999.68
2017-08-04T11:35:22.290Z,999.64
2017-08-04T11:36:22.320Z,999.72
2017-08-04T11:37:22.351Z,999.67
2017-08-04T11:38:22.381Z,999.66
2017-08-04T11:39:22.414Z,999.68
2017-08-04T11:40:22.443Z,999.7
2017-08-04T11:41:22.472Z,999.68
2017-08-04T11:42:22.502Z,999.68
2017-08-04T11:43:22.533Z,999.65
2017-08-04T11:44:22.564Z,999.66
2017-08-04T11:45:22.595Z,999.68
2017-08-04T11:46:22.672Z,999.65
2017-08-04T11:47:22.655Z,999.66
2017-08-04T11:48:22.685Z,999.66
2017-08-04T11:49:22.716Z,999.59
2017-08-04T11:50:22.747Z,999.69
2017-08-04T11:51:22.778Z,999.62
2017-08-04T11:52:22.812Z,999.65
2017-08-04T11:53:22.839Z,999.68
2017-08-04T11:54:22.870Z,999.68
2017-08-04T11:55:22.902Z,999.68
2017-08-04T11:56:22.931Z,999.73
2017-08-04T11:57:22.962Z,999.67
2017-08-04T11:58:22.992Z,999.68
2017-08-04T11:59:23.023Z,999.72
2017-08-04T12:00:23.148Z,999.77
2017-08-04T12:01:23.085Z,999.77
2017-08-04T12:02:23.116Z,999.76
2017-08-04T12:03:23.147Z,999.76
2017-08-04T12:04:23.178Z,999.69
2017-08-04T12:05:23.208Z,999.72
2017-08-04T12:06:23.264Z,999.79
2017-08-04T12:07:23.270Z,999.72
2017-08-04T12:08:23.308Z,999.8
2017-08-04T12:09:23.333Z,999.84
2017-08-04T12:10:23.364Z,999.78
2017-08-04T12:11:23.396Z,999.79
2017-08-04T12:12:23.426Z,999.77
2017-08-04T12:13:23.459Z,999.69
2017-08-04T12:14:23.488Z,999.77
2017-08-04T12:15:23.519Z,999.71
2017-08-04T12:16:23.551Z,999.73
2017-08-04T12:17:23.581Z,999.76
2017-08-04T12:18:23.612Z,999.72
2017-08-04T12:19:23.645Z,999.75
2017-08-04T12:20:23.680Z,999.74
2017-08-04T12:21:23.706Z,999.81
2017-08-04T12:22:23.749Z,999.71
2017-08-04T12:23:23.772Z,999.68
2017-08-04T12:24:23.804Z,999.76